sensor_id;sensor_type;location;lat;lon;timestamp;temperature;humidity
3792;DHT22;1911;53.768;11.474;2022-09-09T00:06:45;15.00;99.90
3792;DHT22;1911;53.768;11.474;2022-09-09T00:09:21;14.90;99.90
3792;DHT22;1911;53.768;11.474;2022-09-09T00:11:54;14.90;99.90
3792;DHT22;1911;53.768;11.474;2022-09-09T00:14:46;14.90;99.90
3792;DHT22;1911;53.768;11.474;2022-09-09T00:20:01;15.00;99.90
3792;DHT22;1911;53.768;11.474;2022-09-09T00:22:30;15.00;99.90
3792;DHT22;1911;53.768;11.474;2022-09-09T00:25:27;15.00;99.90
3792;DHT22;1911;53.768;11.474;2022-09-09T00:27:54;14.90;99.90
3792;DHT22;1911;53.768;11.474;2022-09-09T00:30:27;14.90;99.90
3792;DHT22;1911;53.768;11.474;2022-09-09T00:33:10;14.90;99.90
3792;DHT22;1911;53.768;11.474;2022-09-09T00:35:59;15.00;99.90
3792;DHT22;1911;53.768;11.474;2022-09-09T00:38:31;15.00;99.90
3792;DHT22;1911;53.768;11.474;2022-09-09T00:50:09;14.90;99.90
3792;DHT22;1911;53.768;11.474;2022-09-09T00:56:31;14.80;99.90
3792;DHT22;1911;53.768;11.474;2022-09-09T00:59:28;14.80;99.90
3792;DHT22;1911;53.768;11.474;2022-09-09T01:02:00;14.90;99.90
3792;DHT22;1911;53.768;11.474;2022-09-09T01:04:34;14.90;99.90
3792;DHT22;1911;53.768;11.474;2022-09-09T01:07:13;14.90;99.90
3792;DHT22;1911;53.768;11.474;2022-09-09T01:22:33;14.90;99.90
3792;DHT22;1911;53.768;11.474;2022-09-09T01:28:06;14.80;99.90
3792;DHT22;1911;53.768;11.474;2022-09-09T01:30:37;14.80;99.90
3792;DHT22;1911;53.768;11.474;2022-09-09T01:33:04;14.90;99.90
3792;DHT22;1911;53.768;11.474;2022-09-09T01:38:13;14.80;99.90
3792;DHT22;1911;53.768;11.474;2022-09-09T01:40:39;14.80;99.90
3792;DHT22;1911;53.768;11.474;2022-09-09T01:43:05;14.80;99.90
3792;DHT22;1911;53.768;11.474;2022-09-09T01:45:32;14.90;99.90
3792;DHT22;1911;53.768;11.474;2022-09-09T01:47:59;14.90;99.90
3792;DHT22;1911;53.768;11.474;2022-09-09T01:50:25;14.90;99.90
3792;DHT22;1911;53.768;11.474;2022-09-09T01:52:55;14.90;99.90
3792;DHT22;1911;53.768;11.474;2022-09-09T01:55:32;14.90;99.90
3792;DHT22;1911;53.768;11.474;2022-09-09T02:00:42;14.90;99.90
3792;DHT22;1911;53.768;11.474;2022-09-09T02:03:17;14.90;99.90
3792;DHT22;1911;53.768;11.474;2022-09-09T02:08:24;14.80;99.90
3792;DHT22;1911;53.768;11.474;2022-09-09T02:11:14;14.80;99.90
3792;DHT22;1911;53.768;11.474;2022-09-09T02:13:41;14.90;99.90
3792;DHT22;1911;53.768;11.474;2022-09-09T02:16:12;14.80;99.90
3792;DHT22;1911;53.768;11.474;2022-09-09T02:18:44;14.90;99.90
3792;DHT22;1911;53.768;11.474;2022-09-09T02:21:13;14.80;99.90
3792;DHT22;1911;53.768;11.474;2022-09-09T02:23:41;14.80;99.90
3792;DHT22;1911;53.768;11.474;2022-09-09T02:26:08;14.80;99.90
3792;DHT22;1911;53.768;11.474;2022-09-09T02:28:36;14.80;99.90
3792;DHT22;1911;53.768;11.474;2022-09-09T02:31:04;14.90;99.90
3792;DHT22;1911;53.768;11.474;2022-09-09T02:33:34;14.80;99.90
3792;DHT22;1911;53.768;11.474;2022-09-09T02:36:02;14.90;99.90
3792;DHT22;1911;53.768;11.474;2022-09-09T02:38:33;14.80;99.90
3792;DHT22;1911;53.768;11.474;2022-09-09T02:41:00;14.90;99.90
3792;DHT22;1911;53.768;11.474;2022-09-09T02:43:31;14.90;99.90
3792;DHT22;1911;53.768;11.474;2022-09-09T02:46:16;14.80;99.90
3792;DHT22;1911;53.768;11.474;2022-09-09T02:54:04;14.70;99.90
3792;DHT22;1911;53.768;11.474;2022-09-09T02:56:40;14.70;99.90
3792;DHT22;1911;53.768;11.474;2022-09-09T02:59:07;14.80;99.90
3792;DHT22;1911;53.768;11.474;2022-09-09T03:01:32;14.70;99.90
3792;DHT22;1911;53.768;11.474;2022-09-09T03:03:58;14.70;99.90
3792;DHT22;1911;53.768;11.474;2022-09-09T03:06:24;14.80;99.90
3792;DHT22;1911;53.768;11.474;2022-09-09T03:08:49;14.80;99.90
3792;DHT22;1911;53.768;11.474;2022-09-09T03:11:16;14.70;99.90
3792;DHT22;1911;53.768;11.474;2022-09-09T03:13:42;14.60;99.90
3792;DHT22;1911;53.768;11.474;2022-09-09T03:16:07;14.70;99.90
3792;DHT22;1911;53.768;11.474;2022-09-09T03:18:33;14.70;99.90
3792;DHT22;1911;53.768;11.474;2022-09-09T03:20:59;14.70;99.90
3792;DHT22;1911;53.768;11.474;2022-09-09T03:23:25;14.80;99.90
3792;DHT22;1911;53.768;11.474;2022-09-09T03:25:51;14.70;99.90
3792;DHT22;1911;53.768;11.474;2022-09-09T03:28:17;14.70;99.90
3792;DHT22;1911;53.768;11.474;2022-09-09T03:30:43;14.70;99.90
3792;DHT22;1911;53.768;11.474;2022-09-09T03:33:09;14.70;99.90
3792;DHT22;1911;53.768;11.474;2022-09-09T03:35:35;14.70;99.90
3792;DHT22;1911;53.768;11.474;2022-09-09T03:38:01;14.70;99.90
3792;DHT22;1911;53.768;11.474;2022-09-09T03:40:26;14.70;99.90
3792;DHT22;1911;53.768;11.474;2022-09-09T03:42:52;14.70;99.90
3792;DHT22;1911;53.768;11.474;2022-09-09T03:45:18;14.60;99.90
3792;DHT22;1911;53.768;11.474;2022-09-09T03:47:44;14.60;99.90
3792;DHT22;1911;53.768;11.474;2022-09-09T03:50:10;14.50;99.90
3792;DHT22;1911;53.768;11.474;2022-09-09T03:52:37;14.50;99.90
3792;DHT22;1911;53.768;11.474;2022-09-09T03:55:04;14.40;99.90
3792;DHT22;1911;53.768;11.474;2022-09-09T03:57:30;14.40;99.90
3792;DHT22;1911;53.768;11.474;2022-09-09T03:59:56;14.40;99.90
3792;DHT22;1911;53.768;11.474;2022-09-09T04:02:21;14.30;99.90
3792;DHT22;1911;53.768;11.474;2022-09-09T04:04:47;14.30;99.90
3792;DHT22;1911;53.768;11.474;2022-09-09T04:07:13;14.30;99.90
3792;DHT22;1911;53.768;11.474;2022-09-09T04:09:39;14.30;99.90
3792;DHT22;1911;53.768;11.474;2022-09-09T04:12:05;14.30;99.90
3792;DHT22;1911;53.768;11.474;2022-09-09T04:14:31;14.30;99.90
3792;DHT22;1911;53.768;11.474;2022-09-09T04:16:57;14.30;99.90
3792;DHT22;1911;53.768;11.474;2022-09-09T04:19:24;14.40;99.90
3792;DHT22;1911;53.768;11.474;2022-09-09T04:21:51;14.30;99.90
3792;DHT22;1911;53.768;11.474;2022-09-09T04:24:17;14.30;99.90
3792;DHT22;1911;53.768;11.474;2022-09-09T04:26:43;14.30;99.90
3792;DHT22;1911;53.768;11.474;2022-09-09T04:29:08;14.30;99.90
3792;DHT22;1911;53.768;11.474;2022-09-09T04:31:35;14.30;99.90
3792;DHT22;1911;53.768;11.474;2022-09-09T04:34:00;14.30;99.90
3792;DHT22;1911;53.768;11.474;2022-09-09T04:36:31;14.30;99.90
3792;DHT22;1911;53.768;11.474;2022-09-09T04:38:57;14.30;99.90
3792;DHT22;1911;53.768;11.474;2022-09-09T04:41:23;14.30;99.90
3792;DHT22;1911;53.768;11.474;2022-09-09T04:43:49;14.30;99.90
3792;DHT22;1911;53.768;11.474;2022-09-09T04:46:15;14.40;99.90
3792;DHT22;1911;53.768;11.474;2022-09-09T04:48:43;14.40;99.90
3792;DHT22;1911;53.768;11.474;2022-09-09T04:51:12;14.30;99.90
3792;DHT22;1911;53.768;11.474;2022-09-09T04:53:38;14.40;99.90
3792;DHT22;1911;53.768;11.474;2022-09-09T04:56:11;14.40;99.90
3792;DHT22;1911;53.768;11.474;2022-09-09T04:58:38;14.40;99.90
3792;DHT22;1911;53.768;11.474;2022-09-09T05:01:05;14.50;99.90
3792;DHT22;1911;53.768;11.474;2022-09-09T05:03:31;14.40;99.90
3792;DHT22;1911;53.768;11.474;2022-09-09T05:06:08;14.50;99.90
3792;DHT22;1911;53.768;11.474;2022-09-09T05:08:38;14.40;99.90
3792;DHT22;1911;53.768;11.474;2022-09-09T05:11:22;14.40;99.90
3792;DHT22;1911;53.768;11.474;2022-09-09T05:13:51;14.40;99.90
3792;DHT22;1911;53.768;11.474;2022-09-09T05:16:18;14.30;99.90
3792;DHT22;1911;53.768;11.474;2022-09-09T05:18:44;14.30;99.90
3792;DHT22;1911;53.768;11.474;2022-09-09T05:21:12;14.30;99.90
3792;DHT22;1911;53.768;11.474;2022-09-09T05:23:38;14.40;99.90
3792;DHT22;1911;53.768;11.474;2022-09-09T05:26:04;14.50;99.90
3792;DHT22;1911;53.768;11.474;2022-09-09T05:28:30;14.50;99.90
3792;DHT22;1911;53.768;11.474;2022-09-09T05:31:02;14.60;99.90
3792;DHT22;1911;53.768;11.474;2022-09-09T05:33:33;14.60;99.90
3792;DHT22;1911;53.768;11.474;2022-09-09T05:36:02;14.70;99.90
3792;DHT22;1911;53.768;11.474;2022-09-09T05:38:28;14.60;99.90
3792;DHT22;1911;53.768;11.474;2022-09-09T05:40:54;14.60;99.90
3792;DHT22;1911;53.768;11.474;2022-09-09T05:43:22;14.60;99.90
3792;DHT22;1911;53.768;11.474;2022-09-09T05:45:48;14.60;99.90
3792;DHT22;1911;53.768;11.474;2022-09-09T05:48:23;14.60;99.90
3792;DHT22;1911;53.768;11.474;2022-09-09T05:50:53;14.50;99.90
3792;DHT22;1911;53.768;11.474;2022-09-09T05:53:19;14.60;99.90
3792;DHT22;1911;53.768;11.474;2022-09-09T05:55:45;14.60;99.90
3792;DHT22;1911;53.768;11.474;2022-09-09T05:58:11;14.60;99.90
3792;DHT22;1911;53.768;11.474;2022-09-09T06:00:37;14.70;99.90
3792;DHT22;1911;53.768;11.474;2022-09-09T06:03:03;14.70;99.90
3792;DHT22;1911;53.768;11.474;2022-09-09T06:05:29;14.70;99.90
3792;DHT22;1911;53.768;11.474;2022-09-09T06:07:55;14.70;99.90
3792;DHT22;1911;53.768;11.474;2022-09-09T06:10:21;14.70;99.90
3792;DHT22;1911;53.768;11.474;2022-09-09T06:12:47;14.70;99.90
3792;DHT22;1911;53.768;11.474;2022-09-09T06:15:13;14.70;99.90
3792;DHT22;1911;53.768;11.474;2022-09-09T06:17:38;14.80;99.90
3792;DHT22;1911;53.768;11.474;2022-09-09T06:20:05;14.90;99.90
3792;DHT22;1911;53.768;11.474;2022-09-09T06:22:30;15.20;99.90
3792;DHT22;1911;53.768;11.474;2022-09-09T06:24:56;15.20;99.90
3792;DHT22;1911;53.768;11.474;2022-09-09T06:27:22;15.20;99.90
3792;DHT22;1911;53.768;11.474;2022-09-09T06:29:47;15.30;99.90
3792;DHT22;1911;53.768;11.474;2022-09-09T06:32:13;15.20;99.90
3792;DHT22;1911;53.768;11.474;2022-09-09T06:34:39;15.10;99.90
3792;DHT22;1911;53.768;11.474;2022-09-09T06:37:05;15.00;99.90
3792;DHT22;1911;53.768;11.474;2022-09-09T06:39:31;14.90;99.90
3792;DHT22;1911;53.768;11.474;2022-09-09T06:41:57;14.90;99.90
3792;DHT22;1911;53.768;11.474;2022-09-09T06:44:24;14.90;99.90
3792;DHT22;1911;53.768;11.474;2022-09-09T06:46:52;15.00;99.90
3792;DHT22;1911;53.768;11.474;2022-09-09T06:49:18;15.00;99.90
3792;DHT22;1911;53.768;11.474;2022-09-09T06:51:43;15.20;99.90
3792;DHT22;1911;53.768;11.474;2022-09-09T06:54:10;15.30;99.90
3792;DHT22;1911;53.768;11.474;2022-09-09T06:56:38;15.40;99.90
3792;DHT22;1911;53.768;11.474;2022-09-09T06:59:08;15.60;99.90
3792;DHT22;1911;53.768;11.474;2022-09-09T07:01:39;15.50;99.90
3792;DHT22;1911;53.768;11.474;2022-09-09T07:04:14;15.40;99.90
3792;DHT22;1911;53.768;11.474;2022-09-09T07:06:42;15.40;99.90
3792;DHT22;1911;53.768;11.474;2022-09-09T07:09:13;15.40;99.90
3792;DHT22;1911;53.768;11.474;2022-09-09T07:11:44;15.40;99.90
3792;DHT22;1911;53.768;11.474;2022-09-09T07:14:11;15.50;99.90
3792;DHT22;1911;53.768;11.474;2022-09-09T07:16:44;15.60;99.90
3792;DHT22;1911;53.768;11.474;2022-09-09T07:19:11;15.60;99.90
3792;DHT22;1911;53.768;11.474;2022-09-09T07:21:37;15.60;99.90
3792;DHT22;1911;53.768;11.474;2022-09-09T07:24:02;15.60;99.90
3792;DHT22;1911;53.768;11.474;2022-09-09T07:26:30;15.80;99.90
3792;DHT22;1911;53.768;11.474;2022-09-09T07:28:56;16.10;99.90
3792;DHT22;1911;53.768;11.474;2022-09-09T07:31:31;16.80;99.90
3792;DHT22;1911;53.768;11.474;2022-09-09T07:33:57;16.80;99.90
3792;DHT22;1911;53.768;11.474;2022-09-09T07:36:27;16.90;99.90
3792;DHT22;1911;53.768;11.474;2022-09-09T07:38:55;16.90;99.90
3792;DHT22;1911;53.768;11.474;2022-09-09T07:41:24;16.90;99.90
3792;DHT22;1911;53.768;11.474;2022-09-09T07:43:50;17.00;99.90
3792;DHT22;1911;53.768;11.474;2022-09-09T07:46:18;17.00;99.90
3792;DHT22;1911;53.768;11.474;2022-09-09T07:48:49;17.00;99.90
3792;DHT22;1911;53.768;11.474;2022-09-09T07:51:21;17.20;99.90
3792;DHT22;1911;53.768;11.474;2022-09-09T07:53:48;18.00;99.90
3792;DHT22;1911;53.768;11.474;2022-09-09T07:56:16;19.30;99.90
3792;DHT22;1911;53.768;11.474;2022-09-09T07:58:45;20.40;1.00
3792;DHT22;1911;53.768;11.474;2022-09-09T08:01:20;20.90;1.00
3792;DHT22;1911;53.768;11.474;2022-09-09T08:03:51;21.00;99.90
3792;DHT22;1911;53.768;11.474;2022-09-09T08:06:17;20.60;1.00
3792;DHT22;1911;53.768;11.474;2022-09-09T08:08:43;19.70;1.00
3792;DHT22;1911;53.768;11.474;2022-09-09T08:11:13;19.10;1.00
3792;DHT22;1911;53.768;11.474;2022-09-09T08:13:40;18.70;1.00
3792;DHT22;1911;53.768;11.474;2022-09-09T08:16:12;18.30;1.00
3792;DHT22;1911;53.768;11.474;2022-09-09T08:18:38;18.00;17.10
3792;DHT22;1911;53.768;11.474;2022-09-09T08:21:06;17.50;99.90
3792;DHT22;1911;53.768;11.474;2022-09-09T08:23:32;17.20;99.90
3792;DHT22;1911;53.768;11.474;2022-09-09T08:26:04;16.90;99.90
3792;DHT22;1911;53.768;11.474;2022-09-09T08:28:30;16.70;99.90
3792;DHT22;1911;53.768;11.474;2022-09-09T08:31:04;16.70;99.90
3792;DHT22;1911;53.768;11.474;2022-09-09T08:33:29;16.60;99.90
3792;DHT22;1911;53.768;11.474;2022-09-09T08:35:55;16.50;99.90
3792;DHT22;1911;53.768;11.474;2022-09-09T08:38:21;16.90;99.90
3792;DHT22;1911;53.768;11.474;2022-09-09T08:40:49;17.00;99.90
3792;DHT22;1911;53.768;11.474;2022-09-09T08:43:20;17.20;99.90
3792;DHT22;1911;53.768;11.474;2022-09-09T08:46:01;17.50;99.90
3792;DHT22;1911;53.768;11.474;2022-09-09T08:49:05;17.80;99.90
3792;DHT22;1911;53.768;11.474;2022-09-09T08:51:36;17.90;99.90
3792;DHT22;1911;53.768;11.474;2022-09-09T08:54:03;17.70;99.90
3792;DHT22;1911;53.768;11.474;2022-09-09T08:56:31;17.80;99.90
3792;DHT22;1911;53.768;11.474;2022-09-09T08:58:59;17.70;99.90
3792;DHT22;1911;53.768;11.474;2022-09-09T09:07:35;17.80;99.90
3792;DHT22;1911;53.768;11.474;2022-09-09T09:10:17;17.90;99.90
3792;DHT22;1911;53.768;11.474;2022-09-09T09:12:45;18.40;99.90
3792;DHT22;1911;53.768;11.474;2022-09-09T09:15:30;19.30;99.90
3792;DHT22;1911;53.768;11.474;2022-09-09T09:17:56;20.50;1.00
3792;DHT22;1911;53.768;11.474;2022-09-09T11:01:24;21.40;99.90
3792;DHT22;1911;53.768;11.474;2022-09-09T11:04:01;21.20;1.00
3792;DHT22;1911;53.768;11.474;2022-09-09T11:06:34;20.90;99.90
3792;DHT22;1911;53.768;11.474;2022-09-09T11:09:02;20.60;1.00
3792;DHT22;1911;53.768;11.474;2022-09-09T11:11:38;20.20;99.90
3792;DHT22;1911;53.768;11.474;2022-09-09T11:14:32;20.20;97.00
3792;DHT22;1911;53.768;11.474;2022-09-09T11:17:03;20.50;1.00
3792;DHT22;1911;53.768;11.474;2022-09-09T11:19:41;20.90;1.00
3792;DHT22;1911;53.768;11.474;2022-09-09T11:22:13;21.10;99.90
3792;DHT22;1911;53.768;11.474;2022-09-09T11:24:47;21.30;99.90
3792;DHT22;1911;53.768;11.474;2022-09-09T11:27:21;21.50;99.90
3792;DHT22;1911;53.768;11.474;2022-09-09T11:37:41;21.90;1.00
3792;DHT22;1911;53.768;11.474;2022-09-09T11:40:23;22.00;99.90
3792;DHT22;1911;53.768;11.474;2022-09-09T11:42:49;22.10;99.90
3792;DHT22;1911;53.768;11.474;2022-09-09T11:45:27;22.20;99.90
3792;DHT22;1911;53.768;11.474;2022-09-09T11:47:59;22.00;99.90
3792;DHT22;1911;53.768;11.474;2022-09-09T11:53:02;21.80;99.90
3792;DHT22;1911;53.768;11.474;2022-09-09T11:55:31;21.70;99.90
3792;DHT22;1911;53.768;11.474;2022-09-09T11:58:00;21.70;27.10
3792;DHT22;1911;53.768;11.474;2022-09-09T12:03:03;21.80;99.90
3792;DHT22;1911;53.768;11.474;2022-09-09T12:05:41;21.90;99.90
3792;DHT22;1911;53.768;11.474;2022-09-09T12:08:11;22.00;1.00
3792;DHT22;1911;53.768;11.474;2022-09-09T12:10:39;22.00;1.00
3792;DHT22;1911;53.768;11.474;2022-09-09T12:15:55;22.00;1.00
3792;DHT22;1911;53.768;11.474;2022-09-09T12:18:32;22.00;1.00
3792;DHT22;1911;53.768;11.474;2022-09-09T12:21:33;21.90;27.30
3792;DHT22;1911;53.768;11.474;2022-09-09T12:31:46;21.80;1.00
3792;DHT22;1911;53.768;11.474;2022-09-09T12:40:36;21.30;99.90
3792;DHT22;1911;53.768;11.474;2022-09-09T12:43:16;21.30;27.60
3792;DHT22;1911;53.768;11.474;2022-09-09T12:45:42;21.30;93.90
3792;DHT22;1911;53.768;11.474;2022-09-09T12:48:09;21.30;1.00
3792;DHT22;1911;53.768;11.474;2022-09-09T12:50:51;21.30;99.90
3792;DHT22;1911;53.768;11.474;2022-09-09T12:53:26;21.30;1.00
3792;DHT22;1911;53.768;11.474;2022-09-09T12:56:20;21.20;67.60
3792;DHT22;1911;53.768;11.474;2022-09-09T12:58:50;21.10;1.00
3792;DHT22;1911;53.768;11.474;2022-09-09T13:01:23;21.10;35.40
3792;DHT22;1911;53.768;11.474;2022-09-09T13:03:49;21.30;99.90
3792;DHT22;1911;53.768;11.474;2022-09-09T13:06:26;21.40;1.00
3792;DHT22;1911;53.768;11.474;2022-09-09T13:08:53;21.50;1.00
3792;DHT22;1911;53.768;11.474;2022-09-09T13:11:29;21.40;1.00
3792;DHT22;1911;53.768;11.474;2022-09-09T13:13:57;21.40;1.00
3792;DHT22;1911;53.768;11.474;2022-09-09T13:16:30;21.50;7.90
3792;DHT22;1911;53.768;11.474;2022-09-09T13:18:59;21.70;99.90
3792;DHT22;1911;53.768;11.474;2022-09-09T13:21:37;21.80;1.00
3792;DHT22;1911;53.768;11.474;2022-09-09T13:24:26;21.90;1.00
3792;DHT22;1911;53.768;11.474;2022-09-09T13:27:01;21.90;1.00
3792;DHT22;1911;53.768;11.474;2022-09-09T13:29:28;21.90;99.90
3792;DHT22;1911;53.768;11.474;2022-09-09T13:31:54;21.80;99.90
3792;DHT22;1911;53.768;11.474;2022-09-09T13:34:31;21.70;1.00
3792;DHT22;1911;53.768;11.474;2022-09-09T13:37:21;21.60;99.90
3792;DHT22;1911;53.768;11.474;2022-09-09T13:39:52;21.40;1.00
3792;DHT22;1911;53.768;11.474;2022-09-09T13:42:28;21.30;1.00
3792;DHT22;1911;53.768;11.474;2022-09-09T13:45:15;21.40;1.00
3792;DHT22;1911;53.768;11.474;2022-09-09T13:47:48;21.30;1.00
3792;DHT22;1911;53.768;11.474;2022-09-09T13:50:34;21.30;1.00
3792;DHT22;1911;53.768;11.474;2022-09-09T13:53:20;21.30;1.00
3792;DHT22;1911;53.768;11.474;2022-09-09T13:55:48;21.30;1.00
3792;DHT22;1911;53.768;11.474;2022-09-09T13:58:16;21.20;99.90
3792;DHT22;1911;53.768;11.474;2022-09-09T14:00:44;21.20;1.00
3792;DHT22;1911;53.768;11.474;2022-09-09T14:03:10;21.20;1.00
3792;DHT22;1911;53.768;11.474;2022-09-09T14:05:35;21.10;1.00
3792;DHT22;1911;53.768;11.474;2022-09-09T14:08:04;21.00;1.00
3792;DHT22;1911;53.768;11.474;2022-09-09T14:10:30;21.10;1.00
3792;DHT22;1911;53.768;11.474;2022-09-09T14:12:56;21.20;1.00
3792;DHT22;1911;53.768;11.474;2022-09-09T14:15:22;21.30;1.00
3792;DHT22;1911;53.768;11.474;2022-09-09T14:17:48;21.40;1.00
3792;DHT22;1911;53.768;11.474;2022-09-09T14:20:14;21.30;1.00
3792;DHT22;1911;53.768;11.474;2022-09-09T14:22:41;21.10;1.00
3792;DHT22;1911;53.768;11.474;2022-09-09T14:25:07;21.00;1.00
3792;DHT22;1911;53.768;11.474;2022-09-09T14:27:33;20.90;1.00
3792;DHT22;1911;53.768;11.474;2022-09-09T14:29:59;20.80;1.00
3792;DHT22;1911;53.768;11.474;2022-09-09T14:32:26;20.70;1.00
3792;DHT22;1911;53.768;11.474;2022-09-09T14:34:52;20.60;99.90
3792;DHT22;1911;53.768;11.474;2022-09-09T14:37:17;20.50;1.00
3792;DHT22;1911;53.768;11.474;2022-09-09T14:39:43;20.30;1.00
3792;DHT22;1911;53.768;11.474;2022-09-09T14:42:10;20.10;1.00
3792;DHT22;1911;53.768;11.474;2022-09-09T14:44:37;20.10;1.00
3792;DHT22;1911;53.768;11.474;2022-09-09T14:47:07;20.00;99.90
3792;DHT22;1911;53.768;11.474;2022-09-09T14:49:36;19.90;1.00
3792;DHT22;1911;53.768;11.474;2022-09-09T14:52:03;19.90;1.00
3792;DHT22;1911;53.768;11.474;2022-09-09T14:54:30;19.80;90.00
3792;DHT22;1911;53.768;11.474;2022-09-09T14:56:56;19.70;1.00
3792;DHT22;1911;53.768;11.474;2022-09-09T14:59:22;19.70;1.00
3792;DHT22;1911;53.768;11.474;2022-09-09T15:01:47;19.60;1.00
3792;DHT22;1911;53.768;11.474;2022-09-09T15:04:13;19.60;1.00
3792;DHT22;1911;53.768;11.474;2022-09-09T15:06:42;19.50;99.90
3792;DHT22;1911;53.768;11.474;2022-09-09T15:09:10;19.40;1.00
3792;DHT22;1911;53.768;11.474;2022-09-09T15:11:37;19.40;1.00
3792;DHT22;1911;53.768;11.474;2022-09-09T15:14:04;19.40;1.00
3792;DHT22;1911;53.768;11.474;2022-09-09T15:16:30;19.40;1.00
3792;DHT22;1911;53.768;11.474;2022-09-09T15:18:58;19.40;1.00
3792;DHT22;1911;53.768;11.474;2022-09-09T15:21:27;19.40;1.00
3792;DHT22;1911;53.768;11.474;2022-09-09T15:23:53;19.40;1.00
3792;DHT22;1911;53.768;11.474;2022-09-09T15:26:19;19.40;1.00
3792;DHT22;1911;53.768;11.474;2022-09-09T15:28:47;19.40;1.00
3792;DHT22;1911;53.768;11.474;2022-09-09T15:31:14;19.40;1.00
3792;DHT22;1911;53.768;11.474;2022-09-09T15:33:41;19.50;1.00
3792;DHT22;1911;53.768;11.474;2022-09-09T15:38:43;19.30;1.00
3792;DHT22;1911;53.768;11.474;2022-09-09T15:41:10;19.20;1.00
3792;DHT22;1911;53.768;11.474;2022-09-09T15:43:36;19.20;1.00
3792;DHT22;1911;53.768;11.474;2022-09-09T15:48:43;19.00;1.00
3792;DHT22;1911;53.768;11.474;2022-09-09T15:51:10;19.00;1.00
3792;DHT22;1911;53.768;11.474;2022-09-09T15:53:39;19.00;99.90
3792;DHT22;1911;53.768;11.474;2022-09-09T15:56:05;18.70;99.90
3792;DHT22;1911;53.768;11.474;2022-09-09T15:58:32;18.40;1.00
3792;DHT22;1911;53.768;11.474;2022-09-09T16:01:08;18.10;1.00
3792;DHT22;1911;53.768;11.474;2022-09-09T16:03:40;17.80;1.00
3792;DHT22;1911;53.768;11.474;2022-09-09T16:06:11;17.60;1.00
3792;DHT22;1911;53.768;11.474;2022-09-09T16:08:39;17.30;1.00
3792;DHT22;1911;53.768;11.474;2022-09-09T16:11:11;17.00;99.90
3792;DHT22;1911;53.768;11.474;2022-09-09T16:13:39;16.90;99.90
3792;DHT22;1911;53.768;11.474;2022-09-09T16:24:20;16.60;99.90
3792;DHT22;1911;53.768;11.474;2022-09-09T16:33:46;17.00;99.90
3792;DHT22;1911;53.768;11.474;2022-09-09T16:36:15;17.00;99.90
3792;DHT22;1911;53.768;11.474;2022-09-09T16:38:41;16.90;99.90
3792;DHT22;1911;53.768;11.474;2022-09-09T16:41:09;16.90;99.90
3792;DHT22;1911;53.768;11.474;2022-09-09T16:43:35;16.90;99.90
3792;DHT22;1911;53.768;11.474;2022-09-09T16:46:12;16.90;99.90
3792;DHT22;1911;53.768;11.474;2022-09-09T16:48:41;16.90;99.90
3792;DHT22;1911;53.768;11.474;2022-09-09T16:51:09;16.90;99.90
3792;DHT22;1911;53.768;11.474;2022-09-09T16:53:36;16.70;99.90
3792;DHT22;1911;53.768;11.474;2022-09-09T16:56:08;16.60;99.90
3792;DHT22;1911;53.768;11.474;2022-09-09T16:58:34;16.70;99.90
3792;DHT22;1911;53.768;11.474;2022-09-09T17:01:00;16.70;99.90
3792;DHT22;1911;53.768;11.474;2022-09-09T17:03:27;16.60;99.90
3792;DHT22;1911;53.768;11.474;2022-09-09T17:05:53;16.60;99.90
3792;DHT22;1911;53.768;11.474;2022-09-09T17:08:19;16.50;99.90
3792;DHT22;1911;53.768;11.474;2022-09-09T17:10:44;16.50;99.90
3792;DHT22;1911;53.768;11.474;2022-09-09T17:13:11;16.40;99.90
3792;DHT22;1911;53.768;11.474;2022-09-09T17:15:41;16.40;99.90
3792;DHT22;1911;53.768;11.474;2022-09-09T17:18:08;16.40;99.90
3792;DHT22;1911;53.768;11.474;2022-09-09T17:20:39;16.40;99.90
3792;DHT22;1911;53.768;11.474;2022-09-09T17:23:06;16.10;99.90
3792;DHT22;1911;53.768;11.474;2022-09-09T17:25:31;16.20;99.90
3792;DHT22;1911;53.768;11.474;2022-09-09T17:27:58;16.10;99.90
3792;DHT22;1911;53.768;11.474;2022-09-09T17:30:24;16.10;99.90
3792;DHT22;1911;53.768;11.474;2022-09-09T17:32:49;16.00;99.90
3792;DHT22;1911;53.768;11.474;2022-09-09T17:35:15;16.00;99.90
3792;DHT22;1911;53.768;11.474;2022-09-09T17:37:41;16.10;99.90
3792;DHT22;1911;53.768;11.474;2022-09-09T17:40:07;15.90;99.90
3792;DHT22;1911;53.768;11.474;2022-09-09T17:42:33;16.00;99.90
3792;DHT22;1911;53.768;11.474;2022-09-09T17:45:00;16.00;99.90
3792;DHT22;1911;53.768;11.474;2022-09-09T17:47:27;16.10;99.90
3792;DHT22;1911;53.768;11.474;2022-09-09T17:49:53;15.90;99.90
3792;DHT22;1911;53.768;11.474;2022-09-09T17:52:19;15.80;99.90
3792;DHT22;1911;53.768;11.474;2022-09-09T17:54:45;15.70;99.90
3792;DHT22;1911;53.768;11.474;2022-09-09T17:57:11;15.60;99.90
3792;DHT22;1911;53.768;11.474;2022-09-09T17:59:36;15.50;99.90
3792;DHT22;1911;53.768;11.474;2022-09-09T18:02:02;15.50;99.90
3792;DHT22;1911;53.768;11.474;2022-09-09T18:04:30;15.60;99.90
3792;DHT22;1911;53.768;11.474;2022-09-09T18:06:56;15.50;99.90
3792;DHT22;1911;53.768;11.474;2022-09-09T18:09:25;15.40;99.90
3792;DHT22;1911;53.768;11.474;2022-09-09T18:11:56;15.30;99.90
3792;DHT22;1911;53.768;11.474;2022-09-09T18:14:28;15.30;99.90
3792;DHT22;1911;53.768;11.474;2022-09-09T18:16:56;15.30;99.90
3792;DHT22;1911;53.768;11.474;2022-09-09T18:19:24;15.30;99.90
3792;DHT22;1911;53.768;11.474;2022-09-09T18:21:51;15.30;99.90
3792;DHT22;1911;53.768;11.474;2022-09-09T18:24:44;15.20;99.90
3792;DHT22;1911;53.768;11.474;2022-09-09T22:18:13;13.60;99.90
3792;DHT22;1911;53.768;11.474;2022-09-09T22:24:05;13.60;99.90
3792;DHT22;1911;53.768;11.474;2022-09-09T22:26:33;13.60;99.90
3792;DHT22;1911;53.768;11.474;2022-09-09T22:28:59;13.60;99.90
3792;DHT22;1911;53.768;11.474;2022-09-09T22:31:26;13.60;99.90
3792;DHT22;1911;53.768;11.474;2022-09-09T22:33:52;13.60;99.90
3792;DHT22;1911;53.768;11.474;2022-09-09T22:36:18;13.60;99.90
3792;DHT22;1911;53.768;11.474;2022-09-09T22:38:45;13.60;99.90
3792;DHT22;1911;53.768;11.474;2022-09-09T22:41:11;13.50;99.90
3792;DHT22;1911;53.768;11.474;2022-09-09T22:43:41;13.50;99.90
3792;DHT22;1911;53.768;11.474;2022-09-09T22:46:06;13.50;99.90
3792;DHT22;1911;53.768;11.474;2022-09-09T22:48:34;13.50;99.90
3792;DHT22;1911;53.768;11.474;2022-09-09T22:51:04;13.50;99.90
3792;DHT22;1911;53.768;11.474;2022-09-09T22:53:30;13.50;99.90
3792;DHT22;1911;53.768;11.474;2022-09-09T22:56:09;13.50;99.90
3792;DHT22;1911;53.768;11.474;2022-09-09T22:58:37;13.50;99.90
3792;DHT22;1911;53.768;11.474;2022-09-09T23:01:11;13.50;99.90
3792;DHT22;1911;53.768;11.474;2022-09-09T23:03:39;13.40;99.90
3792;DHT22;1911;53.768;11.474;2022-09-09T23:06:10;13.40;99.90
3792;DHT22;1911;53.768;11.474;2022-09-09T23:08:37;13.40;99.90
3792;DHT22;1911;53.768;11.474;2022-09-09T23:11:07;13.40;99.90
3792;DHT22;1911;53.768;11.474;2022-09-09T23:13:40;13.40;99.90
3792;DHT22;1911;53.768;11.474;2022-09-09T23:16:12;13.40;99.90
3792;DHT22;1911;53.768;11.474;2022-09-09T23:18:38;13.40;99.90
3792;DHT22;1911;53.768;11.474;2022-09-09T23:21:06;13.40;99.90
3792;DHT22;1911;53.768;11.474;2022-09-09T23:23:31;13.30;99.90
3792;DHT22;1911;53.768;11.474;2022-09-09T23:26:01;13.30;99.90